createdAt,value
2019-02-27T00:01:16.943Z,98046.09
2019-02-27T00:03:48.889Z,98052.22
2019-02-27T00:06:21.106Z,98046.83
2019-02-27T00:08:52.870Z,98048.23
2019-02-27T00:11:24.979Z,98046.73
2019-02-27T00:13:57.958Z,98043.06
2019-02-27T00:16:30.402Z,98036.74
2019-02-27T00:19:02.309Z,98034.78
2019-02-27T00:21:34.066Z,98034.16
2019-02-27T00:24:06.231Z,98035.52
2019-02-27T00:26:39.519Z,98037.76
2019-02-27T00:29:11.921Z,98036.41
2019-02-27T00:31:46.055Z,98040.75
2019-02-27T00:34:17.793Z,98031.05
2019-02-27T00:36:49.695Z,98029.66
2019-02-27T00:39:21.531Z,98031.31
2019-02-27T00:41:53.370Z,98028.91
2019-02-27T00:44:25.126Z,98027.89
2019-02-27T00:46:57.852Z,98024.52
2019-02-27T00:49:29.820Z,98032.97
2019-02-27T00:52:03.256Z,98022.66
2019-02-27T00:54:42.168Z,98019.78
2019-02-27T00:57:15.302Z,98024.80
2019-02-27T00:59:47.109Z,98028.85
2019-02-27T01:02:20.280Z,98023.06
2019-02-27T01:04:52.645Z,98024.41
2019-02-27T01:07:24.497Z,98027.31
2019-02-27T01:09:56.245Z,98027.37
2019-02-27T01:12:28.013Z,98030.77
2019-02-27T01:14:59.851Z,98022.25
2019-02-27T01:17:31.706Z,98023.42
2019-02-27T01:20:03.637Z,98020.22
2019-02-27T01:22:35.496Z,98023.06
2019-02-27T01:25:07.998Z,98013.88
2019-02-27T01:27:39.840Z,98010.52
2019-02-27T01:30:13.325Z,98001.89
2019-02-27T01:32:45.240Z,98000.73
2019-02-27T01:35:18.740Z,97993.92
2019-02-27T01:37:50.973Z,97993.68
2019-02-27T01:40:22.822Z,97983.80
2019-02-27T01:42:54.664Z,97983.83
2019-02-27T01:45:26.564Z,97974.79
2019-02-27T01:47:58.480Z,97983.83
2019-02-27T01:50:36.058Z,97976.53
2019-02-27T01:53:09.485Z,97974.14
2019-02-27T01:55:41.397Z,97973.03
2019-02-27T01:58:13.320Z,97967.02
2019-02-27T02:00:45.733Z,97960.03
2019-02-27T02:03:17.831Z,97962.11
2019-02-27T02:05:49.585Z,97960.22
2019-02-27T02:08:21.713Z,97961.83
2019-02-27T02:10:58.894Z,97962.36
2019-02-27T02:13:48.039Z,97964.44
2019-02-27T02:17:07.449Z,97956.94
2019-02-27T02:20:21.052Z,97951.16
2019-02-27T02:24:03.194Z,97946.98
2019-02-27T02:27:26.783Z,97952.16
2019-02-27T02:30:38.261Z,97942.72
2019-02-27T02:34:22.212Z,97939.46
2019-02-27T02:37:37.797Z,97946.88
2019-02-27T02:41:36.166Z,97936.59
2019-02-27T02:45:00.908Z,97934.94
2019-02-27T02:48:19.896Z,97939.06
2019-02-27T02:51:37.470Z,97932.80
2019-02-27T02:55:32.282Z,97934.85
2019-02-27T02:59:02.975Z,97933.08
2019-02-27T03:02:13.532Z,97926.39
2019-02-27T03:05:58.492Z,97922.20
2019-02-27T03:08:59.425Z,97921.09
2019-02-27T03:12:17.688Z,97914.92
2019-02-27T03:15:37.747Z,97911.77
2019-02-27T03:19:08.848Z,97910.55
2019-02-27T03:22:40.394Z,97905.29
2019-02-27T03:25:44.841Z,97903.63
2019-02-27T03:29:33.559Z,97903.05
2019-02-27T03:32:50.762Z,97905.52
2019-02-27T03:36:03.460Z,97904.84
2019-02-27T03:39:34.342Z,97901.01
2019-02-27T03:42:52.881Z,97901.12
2019-02-27T03:46:06.275Z,97895.84
2019-02-27T03:49:13.560Z,97896.34
2019-02-27T03:52:37.356Z,97898.03
2019-02-27T03:56:00.992Z,97903.34
2019-02-27T03:58:48.589Z,97894.55
2019-02-27T04:02:05.787Z,97897.78
2019-02-27T04:05:05.188Z,97895.30
2019-02-27T04:08:27.943Z,97893.56
2019-02-27T04:11:05.606Z,97885.00
2019-02-27T04:13:33.267Z,97884.80
2019-02-27T04:16:05.214Z,97888.98
2019-02-27T04:18:34.965Z,97881.73
2019-02-27T04:21:06.820Z,97875.88
2019-02-27T04:23:38.655Z,97881.72
2019-02-27T04:28:49.288Z,97879.84
2019-02-27T04:31:21.165Z,97871.44
2019-02-27T04:33:52.942Z,97867.03
2019-02-27T04:36:24.790Z,97867.57
2019-02-27T04:38:56.546Z,97873.47
2019-02-27T04:41:28.384Z,97868.56
2019-02-27T04:44:00.143Z,97867.61
2019-02-27T04:46:31.903Z,97867.80
2019-02-27T04:49:04.947Z,97873.22
2019-02-27T04:51:37.960Z,97869.41
2019-02-27T04:54:09.722Z,97878.50
2019-02-27T04:56:41.502Z,97881.73
2019-02-27T04:59:18.241Z,97877.55
2019-02-27T05:01:47.016Z,97877.80
2019-02-27T05:04:18.775Z,97881.48
2019-02-27T05:06:50.561Z,97871.45
2019-02-27T05:09:22.345Z,97873.19
2019-02-27T05:11:54.111Z,97869.31
2019-02-27T05:14:27.337Z,97868.02
2019-02-27T05:16:59.716Z,97869.61
2019-02-27T05:19:31.488Z,97866.81
2019-02-27T05:22:03.259Z,97868.11
2019-02-27T05:24:35.089Z,97868.42
2019-02-27T05:27:07.190Z,97873.02
2019-02-27T05:29:39.216Z,97868.11
2019-02-27T05:32:12.304Z,97870.55
2019-02-27T05:34:49.340Z,97868.55
2019-02-27T05:37:17.685Z,97863.78
2019-02-27T05:39:51.227Z,97864.38
2019-02-27T05:42:23.006Z,97866.36
2019-02-27T05:44:55.901Z,97873.50
2019-02-27T05:47:29.065Z,97876.81
2019-02-27T05:50:01.516Z,97872.94
2019-02-27T05:52:33.440Z,97873.26
2019-02-27T05:55:06.947Z,97877.53
2019-02-27T05:57:39.003Z,97873.59
2019-02-27T06:00:15.754Z,97872.76
2019-02-27T06:02:47.772Z,97876.42
2019-02-27T06:05:19.696Z,97886.52
2019-02-27T06:07:51.473Z,97880.45
2019-02-27T06:10:23.689Z,97882.14
2019-02-27T06:12:55.613Z,97882.24
2019-02-27T06:15:28.590Z,97880.08
2019-02-27T06:18:01.003Z,97880.22
2019-02-27T06:20:32.772Z,97879.42
2019-02-27T06:23:05.063Z,97879.23
2019-02-27T06:25:36.844Z,97876.05
2019-02-27T06:28:08.952Z,97878.42
2019-02-27T06:30:40.802Z,97876.05
2019-02-27T06:33:12.568Z,97879.92
2019-02-27T06:35:44.485Z,97875.09
2019-02-27T06:38:16.526Z,97871.57
2019-02-27T06:40:48.604Z,97874.20
2019-02-27T06:43:20.777Z,97877.89
2019-02-27T06:45:54.283Z,97873.63
2019-02-27T06:48:26.098Z,97873.67
2019-02-27T06:50:58.305Z,97871.48
2019-02-27T06:53:31.616Z,97872.53
2019-02-27T06:56:04.527Z,97869.70
2019-02-27T06:58:36.379Z,97868.92
2019-02-27T07:01:09.683Z,97870.44
2019-02-27T07:03:43.092Z,97876.20
2019-02-27T07:06:14.933Z,97870.14
2019-02-27T07:08:47.232Z,97872.97
2019-02-27T07:11:19.050Z,97871.96
2019-02-27T07:13:50.892Z,97871.17
2019-02-27T07:16:23.571Z,97875.91
2019-02-27T07:18:55.529Z,97868.41
2019-02-27T07:21:32.541Z,97866.05
2019-02-27T07:24:01.000Z,97861.33
2019-02-27T07:26:34.070Z,97861.69
2019-02-27T07:29:05.900Z,97862.70
2019-02-27T07:31:38.193Z,97858.65
2019-02-27T07:34:14.231Z,97851.61
2019-02-27T07:36:45.299Z,97851.88
2019-02-27T07:39:17.096Z,97862.51
2019-02-27T07:41:48.908Z,97852.70
2019-02-27T07:44:20.688Z,97850.84
2019-02-27T07:46:57.282Z,97853.13
2019-02-27T07:49:28.314Z,97854.66
2019-02-27T07:51:59.430Z,97857.64
2019-02-27T07:54:31.265Z,97853.69
2019-02-27T07:57:03.111Z,97855.30
2019-02-27T07:59:37.982Z,97851.63
2019-02-27T08:02:08.419Z,97849.77
2019-02-27T08:04:40.183Z,97846.40
2019-02-27T08:07:12.410Z,97846.48
2019-02-27T08:09:44.901Z,97851.52
2019-02-27T08:12:17.545Z,97858.22
2019-02-27T08:14:50.522Z,97860.39
2019-02-27T08:17:23.549Z,97854.41
2019-02-27T08:19:55.276Z,97843.49
2019-02-27T08:22:27.098Z,97850.00
2019-02-27T08:24:59.392Z,97843.94
2019-02-27T08:27:31.456Z,97842.59
2019-02-27T08:30:03.364Z,97838.38
2019-02-27T08:32:36.214Z,97844.10
2019-02-27T08:35:08.387Z,97837.81
2019-02-27T08:37:40.198Z,97833.03
2019-02-27T08:40:12.396Z,97835.94
2019-02-27T08:42:44.372Z,97829.73
2019-02-27T08:45:19.949Z,97828.34
2019-02-27T08:47:49.928Z,97831.24
2019-02-27T08:50:22.018Z,97816.16
2019-02-27T08:52:53.863Z,97820.23
2019-02-27T08:55:25.770Z,97817.67
2019-02-27T08:57:57.588Z,97813.59
2019-02-27T09:00:30.022Z,97809.20
2019-02-27T09:03:02.888Z,97814.89
2019-02-27T09:05:35.668Z,97807.77
2019-02-27T09:08:10.134Z,97801.53
2019-02-27T09:10:42.054Z,97797.91
2019-02-27T09:13:13.870Z,97790.62
2019-02-27T09:15:45.609Z,97785.25
2019-02-27T09:18:17.350Z,97784.05
2019-02-27T09:20:53.071Z,97778.19
2019-02-27T09:23:22.655Z,97775.71
2019-02-27T09:25:57.208Z,97767.82
2019-02-27T09:28:27.980Z,97763.45
2019-02-27T09:31:03.305Z,97759.87
2019-02-27T09:33:38.810Z,97751.56
2019-02-27T09:36:08.047Z,97753.67
2019-02-27T09:38:40.594Z,97751.60
2019-02-27T09:41:13.100Z,97742.15
2019-02-27T09:43:45.797Z,97738.94
2019-02-27T09:46:19.515Z,97735.94
2019-02-27T09:48:51.362Z,97738.94
2019-02-27T09:51:23.268Z,97741.31
2019-02-27T09:53:55.157Z,97743.45
2019-02-27T09:56:29.203Z,97733.61
2019-02-27T09:59:00.440Z,97732.70
2019-02-27T10:01:35.156Z,97724.89
2019-02-27T10:04:05.903Z,97717.25
2019-02-27T10:06:40.427Z,97716.38
2019-02-27T10:09:17.047Z,97711.88
2019-02-27T10:11:48.924Z,97712.72
2019-02-27T10:14:20.753Z,97709.23
2019-02-27T10:16:52.860Z,97705.59
2019-02-27T10:19:26.909Z,97709.59
2019-02-27T10:21:58.047Z,97711.80
2019-02-27T10:24:29.803Z,97700.11
2019-02-27T10:27:01.621Z,97692.77
2019-02-27T10:29:33.454Z,97689.33
2019-02-27T10:32:05.420Z,97686.28
2019-02-27T10:34:37.239Z,97675.76
2019-02-27T10:37:12.839Z,97676.95
2019-02-27T10:39:43.004Z,97674.91
2019-02-27T10:42:14.915Z,97671.14
2019-02-27T10:44:46.664Z,97667.45
2019-02-27T10:47:18.910Z,97665.04
2019-02-27T10:49:50.750Z,97662.50
2019-02-27T10:52:24.425Z,97654.09
2019-02-27T10:54:56.147Z,97653.59
2019-02-27T10:57:31.579Z,97653.77
2019-02-27T11:00:01.547Z,97647.97
2019-02-27T11:02:34.901Z,97644.03
2019-02-27T11:05:06.979Z,97636.85
2019-02-27T11:07:38.958Z,97628.64
2019-02-27T11:10:12.160Z,97623.04
2019-02-27T11:12:43.974Z,97621.69
2019-02-27T11:15:16.904Z,97612.60
2019-02-27T11:17:49.069Z,97608.41
2019-02-27T11:20:22.061Z,97610.45
2019-02-27T11:22:54.948Z,97610.45
2019-02-27T11:25:27.005Z,97588.69
2019-02-27T11:27:59.011Z,97591.52
2019-02-27T11:30:36.773Z,97590.39
2019-02-27T11:33:07.843Z,97576.46
2019-02-27T11:35:39.807Z,97571.66
2019-02-27T11:38:11.550Z,97573.12
2019-02-27T11:40:43.305Z,97568.36
2019-02-27T11:43:17.158Z,97565.12
2019-02-27T11:45:48.646Z,97569.63
2019-02-27T11:48:22.859Z,97560.97
2019-02-27T11:50:53.932Z,97555.75
2019-02-27T11:53:25.754Z,97549.28
2019-02-27T11:55:57.510Z,97551.19
2019-02-27T11:58:29.287Z,97553.45
2019-02-27T12:01:01.200Z,97551.64
2019-02-27T12:03:33.080Z,97546.87
2019-02-27T12:06:05.305Z,97537.17
2019-02-27T12:08:38.660Z,97532.36
2019-02-27T12:11:13.194Z,97521.39
2019-02-27T12:13:45.343Z,97517.23
2019-02-27T12:16:18.345Z,97517.70
2019-02-27T12:18:50.245Z,97510.03
2019-02-27T12:21:22.074Z,97504.93
2019-02-27T12:23:53.819Z,97507.59
2019-02-27T12:26:25.844Z,97503.33
2019-02-27T12:28:57.674Z,97496.89
2019-02-27T12:31:29.653Z,97495.94
2019-02-27T12:34:03.262Z,97492.02
2019-02-27T12:36:34.908Z,97489.36
2019-02-27T12:39:07.986Z,97489.41
2019-02-27T12:41:40.249Z,97486.91
2019-02-27T12:44:12.146Z,97479.56
2019-02-27T12:46:43.964Z,97472.05
2019-02-27T12:49:16.871Z,97473.52
2019-02-27T12:51:49.179Z,97468.91
2019-02-27T12:54:21.016Z,97462.83
2019-02-27T12:56:52.841Z,97471.89
2019-02-27T12:59:24.738Z,97458.01
2019-02-27T13:01:56.552Z,97463.66
2019-02-27T13:04:28.382Z,97456.08
2019-02-27T13:07:00.212Z,97452.81
2019-02-27T13:09:31.947Z,97452.30
2019-02-27T13:12:03.812Z,97446.30
2019-02-27T13:14:35.759Z,97441.08
2019-02-27T13:17:07.597Z,97439.45
2019-02-27T13:19:39.334Z,97433.13
2019-02-27T13:22:12.150Z,97430.14
2019-02-27T13:24:43.893Z,97425.22
2019-02-27T13:27:15.669Z,97422.46
2019-02-27T13:29:47.425Z,97417.45
2019-02-27T13:32:19.272Z,97418.69
2019-02-27T13:34:51.008Z,97409.00
2019-02-27T13:37:22.897Z,97403.14
2019-02-27T13:39:57.309Z,97399.59
2019-02-27T13:42:28.145Z,97404.87
2019-02-27T13:45:00.303Z,97397.14
2019-02-27T13:47:32.251Z,97391.03
2019-02-27T13:50:04.259Z,97393.27
2019-02-27T13:52:36.145Z,97383.13
2019-02-27T13:55:11.162Z,97379.72
2019-02-27T13:57:42.286Z,97378.99
2019-02-27T14:00:21.558Z,97374.80
2019-02-27T14:02:53.445Z,97375.70
2019-02-27T14:05:25.472Z,97374.31
2019-02-27T14:07:58.597Z,97371.89
2019-02-27T14:10:31.636Z,97367.47
2019-02-27T14:13:08.930Z,97376.61
2019-02-27T14:15:37.047Z,97364.47
2019-02-27T14:18:09.009Z,97370.76
2019-02-27T14:20:40.897Z,97365.52
2019-02-27T14:23:14.540Z,97370.49
2019-02-27T14:25:46.930Z,97369.26
2019-02-27T14:28:20.986Z,97361.30
2019-02-27T14:30:52.322Z,97357.40
2019-02-27T14:33:24.158Z,97363.06
2019-02-27T14:35:55.980Z,97367.95
2019-02-27T14:38:27.751Z,97364.14
2019-02-27T14:40:59.578Z,97362.89
2019-02-27T14:43:31.476Z,97363.91
2019-02-27T14:46:03.223Z,97359.80
2019-02-27T14:48:35.144Z,97344.58
2019-02-27T14:51:08.005Z,97343.23
2019-02-27T14:53:40.562Z,97340.39
2019-02-27T14:56:12.464Z,97330.49
2019-02-27T14:58:44.217Z,97329.86
2019-02-27T15:01:16.037Z,97330.63
2019-02-27T15:03:47.863Z,97325.18
2019-02-27T15:06:20.045Z,97320.47
2019-02-27T15:08:57.940Z,97320.48
2019-02-27T15:11:25.403Z,97313.23
2019-02-27T15:13:59.651Z,97308.80
2019-02-27T15:16:30.775Z,97306.19
2019-02-27T15:19:02.871Z,97306.18
2019-02-27T15:21:34.645Z,97299.62
2019-02-27T15:24:06.479Z,97303.08
2019-02-27T15:26:45.027Z,97294.78
2019-02-27T15:29:12.033Z,97294.96
2019-02-27T15:31:43.868Z,97292.84
2019-02-27T15:34:16.027Z,97279.91
2019-02-27T15:36:47.831Z,97278.34
2019-02-27T15:39:21.150Z,97272.37
2019-02-27T15:41:53.569Z,97269.38
2019-02-27T15:44:25.425Z,97275.88
2019-02-27T15:46:57.394Z,97269.01
2019-02-27T15:49:29.381Z,97261.84
2019-02-27T15:52:06.600Z,97257.09
2019-02-27T15:54:35.199Z,97259.08
2019-02-27T15:57:07.152Z,97253.40
2019-02-27T15:59:41.742Z,97250.95
2019-02-27T16:02:12.615Z,97243.81
2019-02-27T16:04:44.638Z,97247.73
2019-02-27T16:07:16.754Z,97240.48
2019-02-27T16:09:48.516Z,97243.73
2019-02-27T16:12:20.347Z,97238.59
2019-02-27T16:14:52.410Z,97235.48
2019-02-27T16:17:24.222Z,97234.41
2019-02-27T16:19:56.956Z,97236.96
2019-02-27T16:22:31.371Z,97233.53
2019-02-27T16:25:02.384Z,97232.14
2019-02-27T16:27:35.724Z,97235.34
2019-02-27T16:30:11.302Z,97233.11
2019-02-27T16:32:47.760Z,97234.57
2019-02-27T16:35:16.898Z,97225.42
2019-02-27T16:37:48.794Z,97232.53
2019-02-27T16:40:20.810Z,97230.17
2019-02-27T16:42:52.698Z,97225.46
2019-02-27T16:45:31.852Z,97226.68
2019-02-27T16:48:01.951Z,97229.68
2019-02-27T16:50:34.039Z,97229.83
2019-02-27T16:53:05.993Z,97229.27
2019-02-27T16:55:39.511Z,97233.56
2019-02-27T16:58:12.372Z,97220.74
2019-02-27T17:00:44.324Z,97206.73
2019-02-27T17:03:17.394Z,97225.77
2019-02-27T17:08:28.413Z,97227.22
2019-02-27T17:11:00.258Z,97238.99
2019-02-27T17:13:32.139Z,97232.05
2019-02-27T17:16:04.125Z,97239.91
2019-02-27T17:18:36.195Z,97237.66
2019-02-27T17:21:07.943Z,97240.58
2019-02-27T17:23:43.786Z,97240.79
2019-02-27T17:26:14.307Z,97242.84
2019-02-27T17:28:48.671Z,97241.19
2019-02-27T17:31:19.596Z,97246.17
2019-02-27T17:33:51.398Z,97231.93
2019-02-27T17:36:23.170Z,97238.87
2019-02-27T17:38:56.128Z,97249.72
2019-02-27T17:41:27.895Z,97249.55
2019-02-27T17:44:03.721Z,97250.64
2019-02-27T17:46:34.131Z,97255.76
2019-02-27T17:49:07.327Z,97252.03
2019-02-27T17:51:40.505Z,97258.50
2019-02-27T17:54:13.611Z,97255.36
2019-02-27T17:56:47.183Z,97254.12
2019-02-27T17:59:20.048Z,97252.09
2019-02-27T18:01:52.670Z,97247.00
2019-02-27T18:04:26.134Z,97246.25
2019-02-27T18:07:00.538Z,97250.73
2019-02-27T18:09:31.424Z,97249.65
2019-02-27T18:12:03.344Z,97247.36
2019-02-27T18:14:35.091Z,97243.23
2019-02-27T18:17:07.586Z,97246.89
2019-02-27T18:19:39.359Z,97248.33
2019-02-27T18:22:14.712Z,97237.41
2019-02-27T18:24:45.255Z,97239.92
2019-02-27T18:27:17.536Z,97235.05
2019-02-27T18:29:49.475Z,97236.84
2019-02-27T18:32:21.299Z,97232.13
2019-02-27T18:34:54.685Z,97233.66
2019-02-27T18:37:26.698Z,97235.38
2019-02-27T18:39:58.705Z,97230.68
2019-02-27T18:42:30.583Z,97231.91
2019-02-27T18:45:02.432Z,97225.91
2019-02-27T18:47:35.274Z,97224.59
2019-02-27T18:50:08.266Z,97221.97
2019-02-27T18:52:40.300Z,97221.22
2019-02-27T18:55:13.047Z,97218.80
2019-02-27T18:57:47.133Z,97221.70
2019-02-27T19:00:21.818Z,97210.58
2019-02-27T19:02:55.035Z,97207.17
2019-02-27T19:05:26.911Z,97203.23
2019-02-27T19:07:58.845Z,97204.56
2019-02-27T19:10:30.937Z,97198.13
2019-02-27T19:13:02.944Z,97201.81
2019-02-27T19:15:35.149Z,97203.33
2019-02-27T19:18:07.505Z,97195.56
2019-02-27T19:20:39.617Z,97203.73
2019-02-27T19:23:17.399Z,97201.86
2019-02-27T19:25:45.610Z,97201.27
2019-02-27T19:28:17.850Z,97200.33
2019-02-27T19:30:49.810Z,97201.28
2019-02-27T19:33:21.818Z,97197.66
2019-02-27T19:35:56.343Z,97194.66
2019-02-27T19:38:29.121Z,97194.74
2019-02-27T19:41:01.301Z,97201.66
2019-02-27T19:43:34.934Z,97194.99
2019-02-27T19:46:09.563Z,97199.67
2019-02-27T19:48:40.584Z,97193.48
2019-02-27T19:51:12.551Z,97197.69
2019-02-27T19:53:44.554Z,97195.69
2019-02-27T19:56:16.555Z,97186.23
2019-02-27T19:58:51.122Z,97192.80
2019-02-27T20:01:21.984Z,97192.11
2019-02-27T20:03:53.815Z,97181.20
2019-02-27T20:06:27.984Z,97179.58
2019-02-27T20:08:59.199Z,97183.16
2019-02-27T20:11:31.109Z,97174.84
2019-02-27T20:14:03.238Z,97179.65
2019-02-27T20:16:35.037Z,97177.97
2019-02-27T20:19:06.945Z,97176.12
2019-02-27T20:21:38.839Z,97173.98
2019-02-27T20:24:14.713Z,97168.73
2019-02-27T20:26:45.363Z,97163.16
2019-02-27T20:29:17.748Z,97160.64
2019-02-27T20:31:51.468Z,97156.14
2019-02-27T20:34:22.949Z,97152.95
2019-02-27T20:36:54.736Z,97144.53
2019-02-27T20:39:27.615Z,97145.94
2019-02-27T20:41:59.436Z,97151.63
2019-02-27T20:44:33.937Z,97142.16
2019-02-27T20:47:05.025Z,97142.37
2019-02-27T20:49:36.787Z,97138.13
2019-02-27T20:52:14.516Z,97144.55
2019-02-27T20:54:42.053Z,97138.84
2019-02-27T20:57:13.811Z,97136.14
2019-02-27T20:59:45.575Z,97134.84
2019-02-27T21:02:18.659Z,97135.06
2019-02-27T21:04:50.910Z,97127.35
2019-02-27T21:07:26.063Z,97129.23
2019-02-27T21:09:56.471Z,97129.03
2019-02-27T21:12:28.469Z,97127.58
2019-02-27T21:15:00.945Z,97127.22
2019-02-27T21:17:32.785Z,97118.87
2019-02-27T21:20:05.126Z,97122.32
2019-02-27T21:22:36.882Z,97113.18
2019-02-27T21:25:12.078Z,97108.89
2019-02-27T21:27:44.075Z,97102.02
2019-02-27T21:30:18.804Z,97095.69
2019-02-27T21:32:51.905Z,97093.06
2019-02-27T21:35:28.888Z,97086.73
2019-02-27T21:37:58.307Z,97088.20
2019-02-27T21:40:30.062Z,97088.41
2019-02-27T21:43:01.883Z,97091.03
2019-02-27T21:45:37.121Z,97087.62
2019-02-27T21:48:07.478Z,97085.12
2019-02-27T21:50:39.895Z,97082.13
2019-02-27T21:53:12.314Z,97084.31
2019-02-27T21:55:44.690Z,97085.77
2019-02-27T21:58:20.675Z,97081.11
2019-02-27T22:00:52.028Z,97082.10
2019-02-27T22:03:23.906Z,97081.56
2019-02-27T22:05:55.798Z,97087.67
2019-02-27T22:08:27.625Z,97084.92
2019-02-27T22:10:59.533Z,97084.55
2019-02-27T22:13:32.343Z,97079.55
2019-02-27T22:16:04.266Z,97074.31
2019-02-27T22:18:36.066Z,97077.35
2019-02-27T22:21:07.892Z,97074.15
2019-02-27T22:23:40.078Z,97072.65
2019-02-27T22:26:11.810Z,97070.98
2019-02-27T22:28:43.668Z,97067.55
2019-02-27T22:31:15.416Z,97060.84
2019-02-27T22:33:47.486Z,97060.16
2019-02-27T22:36:19.253Z,97055.80
2019-02-27T22:38:51.072Z,97055.26
2019-02-27T22:41:22.926Z,97045.09
2019-02-27T22:43:55.745Z,97049.22
2019-02-27T22:46:28.266Z,97038.48
2019-02-27T22:49:01.207Z,97040.86
2019-02-27T22:51:33.001Z,97038.64
2019-02-27T22:54:04.940Z,97033.55
2019-02-27T22:56:36.709Z,97031.31
2019-02-27T22:59:08.554Z,97028.81
2019-02-27T23:01:49.410Z,97023.22
2019-02-27T23:04:18.303Z,97019.71
2019-02-27T23:06:50.132Z,97024.59
2019-02-27T23:09:25.115Z,97020.84
2019-02-27T23:11:55.826Z,97024.89
2019-02-27T23:14:27.683Z,97028.45
2019-02-27T23:17:00.564Z,97023.73
2019-02-27T23:19:33.181Z,97023.31
2019-02-27T23:22:05.181Z,97018.84
2019-02-27T23:24:37.087Z,97017.14
2019-02-27T23:27:08.985Z,97018.89
2019-02-27T23:29:40.832Z,97017.19
2019-02-27T23:32:13.627Z,97020.11
2019-02-27T23:34:45.380Z,97013.77
2019-02-27T23:37:17.275Z,97010.88
2019-02-27T23:39:49.063Z,97004.43
2019-02-27T23:42:21.005Z,97002.08
2019-02-27T23:44:52.932Z,97003.84
2019-02-27T23:47:24.795Z,97006.71
2019-02-27T23:49:56.670Z,97003.55
2019-02-27T23:52:28.493Z,96995.43
2019-02-27T23:55:00.367Z,96996.72
2019-02-27T23:57:32.106Z,97003.39
